createdAt,value
2022-12-09T00:00:44.023Z,21.52
2022-12-09T00:03:10.796Z,22.23
2022-12-09T00:05:40.153Z,20.00
2022-12-09T00:08:06.874Z,20.48
2022-12-09T00:10:33.580Z,21.08
2022-12-09T00:13:00.437Z,16.55
2022-12-09T00:15:27.288Z,22.48
2022-12-09T00:17:53.989Z,18.52
2022-12-09T00:20:20.960Z,18.73
2022-12-09T00:22:47.876Z,18.23
2022-12-09T00:25:14.486Z,17.17
2022-12-09T00:27:41.613Z,17.70
2022-12-09T00:30:08.968Z,20.75
2022-12-09T00:32:35.940Z,14.50
2022-12-09T00:35:04.432Z,20.33
2022-12-09T00:37:31.112Z,14.50
2022-12-09T00:39:57.782Z,21.38
2022-12-09T00:42:24.412Z,17.90
2022-12-09T00:44:51.153Z,16.48
2022-12-09T00:47:18.113Z,18.88
2022-12-09T00:49:44.775Z,17.80
2022-12-09T00:52:11.415Z,17.83
2022-12-09T00:54:38.316Z,18.98
2022-12-09T00:57:06.067Z,16.80
2022-12-09T00:59:32.873Z,14.55
2022-12-09T01:01:59.591Z,16.70
2022-12-09T01:04:26.566Z,15.38
2022-12-09T01:06:53.350Z,12.30
2022-12-09T01:09:20.306Z,17.88
2022-12-09T01:11:47.083Z,13.30
2022-12-09T01:14:14.356Z,16.33
2022-12-09T01:16:41.246Z,16.58
2022-12-09T01:19:13.290Z,16.55
2022-12-09T01:21:40.235Z,13.45
2022-12-09T01:24:10.138Z,16.73
2022-12-09T01:26:37.770Z,16.25
2022-12-09T01:29:04.839Z,17.48
2022-12-09T01:31:31.680Z,15.98
2022-12-09T01:33:58.718Z,18.27
2022-12-09T01:36:28.424Z,14.88
2022-12-09T01:38:57.727Z,14.80
2022-12-09T01:41:25.634Z,18.40
2022-12-09T01:44:18.034Z,18.52
2022-12-09T01:46:45.506Z,14.05
2022-12-09T01:49:18.299Z,14.68
2022-12-09T01:54:14.000Z,13.65
2022-12-09T01:56:41.561Z,19.42
2022-12-09T01:59:14.576Z,14.00
2022-12-09T02:01:45.737Z,15.80
2022-12-09T02:04:12.888Z,15.05
2022-12-09T02:06:39.916Z,15.48
2022-12-09T02:09:07.344Z,15.73
2022-12-09T02:11:43.106Z,15.93
2022-12-09T02:14:28.618Z,16.42
2022-12-09T02:19:47.053Z,18.10
2022-12-09T02:22:17.674Z,14.23
2022-12-09T02:25:06.430Z,19.95
2022-12-09T02:27:55.607Z,18.05
2022-12-09T02:30:38.485Z,19.23
2022-12-09T02:33:23.962Z,20.08
2022-12-09T02:38:28.867Z,18.35
2022-12-09T02:41:16.476Z,17.23
2022-12-09T02:43:50.691Z,16.30
2022-12-09T02:46:21.862Z,14.25
2022-12-09T02:48:54.192Z,16.63
2022-12-09T02:51:22.564Z,15.75
2022-12-09T02:53:55.561Z,16.40
2022-12-09T02:56:23.581Z,15.10
2022-12-09T02:58:50.392Z,15.75
2022-12-09T03:01:29.477Z,14.93
2022-12-09T03:03:56.711Z,14.32
2022-12-09T03:06:30.793Z,12.68
2022-12-09T03:09:09.759Z,14.27
2022-12-09T03:14:24.135Z,16.23
2022-12-09T03:17:00.588Z,15.48
2022-12-09T03:19:33.710Z,15.13
2022-12-09T03:22:06.007Z,17.15
2022-12-09T03:24:38.220Z,14.45
2022-12-09T03:27:09.163Z,14.27
2022-12-09T03:29:39.367Z,13.70
2022-12-09T03:32:10.210Z,15.68
2022-12-09T03:34:40.866Z,13.73
2022-12-09T03:37:09.278Z,13.60
2022-12-09T03:39:38.695Z,13.80
2022-12-09T03:42:15.287Z,11.25
2022-12-09T03:44:49.338Z,16.77
2022-12-09T03:47:16.288Z,14.80
2022-12-09T03:49:43.527Z,15.32
2022-12-09T03:52:27.665Z,15.95
2022-12-09T03:55:01.210Z,15.32
2022-12-09T03:57:29.205Z,15.57
2022-12-09T04:00:01.524Z,16.83
2022-12-09T04:02:29.352Z,15.90
2022-12-09T04:04:56.337Z,15.68
2022-12-09T04:07:23.520Z,18.73
2022-12-09T04:09:50.632Z,17.23
2022-12-09T04:12:17.644Z,15.77
2022-12-09T04:14:45.137Z,13.73
2022-12-09T04:17:12.220Z,14.05
2022-12-09T04:19:38.881Z,14.20
2022-12-09T04:22:05.651Z,18.15
2022-12-09T04:24:32.513Z,15.70
2022-12-09T04:26:59.535Z,16.25
2022-12-09T04:29:26.320Z,16.38
2022-12-09T04:31:53.218Z,15.32
2022-12-09T04:34:20.013Z,16.27
2022-12-09T04:36:47.932Z,17.85
2022-12-09T04:39:14.700Z,15.60
2022-12-09T04:41:41.358Z,15.25
2022-12-09T04:44:07.972Z,15.50
2022-12-09T04:46:35.004Z,17.67
2022-12-09T04:49:01.868Z,18.73
2022-12-09T04:51:31.359Z,16.23
2022-12-09T04:54:02.393Z,17.08
2022-12-09T04:56:29.465Z,13.80
2022-12-09T04:58:56.740Z,15.77
2022-12-09T05:01:30.281Z,20.23
2022-12-09T05:03:58.553Z,19.45
2022-12-09T05:06:26.058Z,17.15
2022-12-09T05:08:53.374Z,18.50
2022-12-09T05:11:21.622Z,15.93
2022-12-09T05:13:48.608Z,18.20
2022-12-09T05:16:17.715Z,20.52
2022-12-09T05:18:46.564Z,17.98
2022-12-09T05:21:19.358Z,21.52
2022-12-09T05:26:16.251Z,16.58
2022-12-09T05:28:43.631Z,20.83
2022-12-09T05:31:14.821Z,20.02
2022-12-09T05:33:42.298Z,17.55
2022-12-09T05:36:11.231Z,16.85
2022-12-09T05:38:39.162Z,22.73
2022-12-09T05:41:06.665Z,16.77
2022-12-09T05:43:34.581Z,18.48
2022-12-09T05:46:02.241Z,15.13
2022-12-09T05:48:29.680Z,15.57
2022-12-09T05:51:23.283Z,18.85
2022-12-09T05:53:50.497Z,18.30
2022-12-09T05:56:18.859Z,17.55
2022-12-09T05:58:46.209Z,20.70
2022-12-09T06:01:13.682Z,20.85
2022-12-09T06:03:40.655Z,17.38
2022-12-09T06:06:10.450Z,18.88
2022-12-09T06:08:38.106Z,21.52
2022-12-09T06:11:09.705Z,18.00
2022-12-09T06:13:36.628Z,19.73
2022-12-09T06:16:07.739Z,15.18
2022-12-09T06:18:35.259Z,18.50
2022-12-09T06:21:09.352Z,19.17
2022-12-09T06:23:37.929Z,19.90
2022-12-09T06:26:05.674Z,21.25
2022-12-09T06:28:33.420Z,17.67
2022-12-09T06:31:00.890Z,21.58
2022-12-09T06:36:14.562Z,26.50
2022-12-09T06:38:41.913Z,26.20
2022-12-09T06:41:11.251Z,22.58
2022-12-09T06:43:38.894Z,29.98
2022-12-09T06:46:17.151Z,19.55
2022-12-09T06:48:44.621Z,16.90
2022-12-09T06:51:12.096Z,21.80
2022-12-09T06:53:39.172Z,23.17
2022-12-09T06:56:11.815Z,22.23
2022-12-09T06:58:43.690Z,25.08
2022-12-09T07:01:19.918Z,22.00
2022-12-09T07:03:50.300Z,19.77
2022-12-09T07:06:27.994Z,21.35
2022-12-09T07:08:56.696Z,19.35
2022-12-09T07:11:24.079Z,18.60
2022-12-09T07:13:51.568Z,22.75
2022-12-09T07:16:18.600Z,24.63
2022-12-09T07:18:45.528Z,27.17
2022-12-09T07:21:15.736Z,38.00
2022-12-09T07:23:42.884Z,28.02
2022-12-09T07:26:10.214Z,34.58
2022-12-09T07:28:39.377Z,30.60
2022-12-09T07:31:06.500Z,22.45
2022-12-09T07:33:33.596Z,27.60
2022-12-09T07:36:00.957Z,31.42
2022-12-09T07:38:30.403Z,24.60
2022-12-09T07:41:05.697Z,27.00
2022-12-09T07:43:38.566Z,19.17
2022-12-09T07:46:09.194Z,19.58
2022-12-09T07:48:36.126Z,18.58
2022-12-09T07:51:04.745Z,21.70
2022-12-09T07:53:34.572Z,25.50
2022-12-09T07:56:03.318Z,21.35
2022-12-09T07:58:30.509Z,24.83
2022-12-09T08:00:57.235Z,23.27
2022-12-09T08:03:23.996Z,19.95
2022-12-09T08:05:52.911Z,25.13
2022-12-09T08:08:19.977Z,19.98
2022-12-09T08:10:47.083Z,21.45
2022-12-09T08:13:14.252Z,19.00
2022-12-09T08:15:41.566Z,21.33
2022-12-09T08:18:08.693Z,19.70
2022-12-09T08:20:37.275Z,23.00
2022-12-09T08:23:04.548Z,17.52
2022-12-09T08:25:31.680Z,20.95
2022-12-09T08:27:59.450Z,19.98
2022-12-09T08:30:26.481Z,26.92
2022-12-09T08:32:53.407Z,23.83
2022-12-09T08:35:21.031Z,26.23
2022-12-09T08:37:48.482Z,27.33
2022-12-09T08:40:15.644Z,26.98
2022-12-09T08:42:42.608Z,25.73
2022-12-09T08:45:09.975Z,24.70
2022-12-09T08:47:37.173Z,26.00
2022-12-09T08:50:05.268Z,23.50
2022-12-09T08:52:38.724Z,21.90
2022-12-09T08:55:07.748Z,24.65
2022-12-09T08:57:34.513Z,29.33
2022-12-09T09:00:01.386Z,33.45
2022-12-09T09:02:28.277Z,21.75
2022-12-09T09:04:55.805Z,24.88
2022-12-09T09:07:22.798Z,27.60
2022-12-09T09:09:49.758Z,23.10
2022-12-09T09:12:16.833Z,27.25
2022-12-09T09:14:43.489Z,24.10
2022-12-09T09:17:11.001Z,24.15
2022-12-09T09:19:38.337Z,24.85
2022-12-09T09:22:05.057Z,23.88
2022-12-09T09:24:31.976Z,22.08
2022-12-09T09:26:58.950Z,21.77
2022-12-09T09:29:25.775Z,22.67
2022-12-09T09:31:57.461Z,23.90
2022-12-09T09:34:26.277Z,19.48
2022-12-09T09:36:54.924Z,25.17
2022-12-09T09:39:22.408Z,22.10
2022-12-09T09:41:56.605Z,26.50
2022-12-09T09:44:27.248Z,23.42
2022-12-09T09:46:55.779Z,26.23
2022-12-09T09:49:43.945Z,19.58
2022-12-09T09:52:20.501Z,21.55
2022-12-09T09:54:47.933Z,21.20
2022-12-09T09:57:37.876Z,21.60
2022-12-09T10:00:20.561Z,18.77
2022-12-09T10:03:04.255Z,20.35
2022-12-09T10:05:41.321Z,21.40
2022-12-09T10:08:37.714Z,14.95
2022-12-09T10:11:36.374Z,19.50
2022-12-09T10:14:21.186Z,17.75
2022-12-09T10:17:00.619Z,18.52
2022-12-09T10:19:39.524Z,18.05
2022-12-09T10:24:48.450Z,15.32
2022-12-09T10:27:33.669Z,20.00
2022-12-09T10:30:07.703Z,19.58
2022-12-09T10:32:36.919Z,16.77
2022-12-09T10:35:26.893Z,14.77
2022-12-09T10:37:55.767Z,17.08
2022-12-09T10:40:30.348Z,12.98
2022-12-09T10:43:17.667Z,15.20
2022-12-09T10:48:38.688Z,18.33
2022-12-09T10:51:21.649Z,15.25
2022-12-09T10:54:00.060Z,13.23
2022-12-09T10:56:36.830Z,17.33
2022-12-09T10:59:24.186Z,13.77
2022-12-09T11:01:56.572Z,13.20
2022-12-09T11:04:30.026Z,17.05
2022-12-09T11:07:19.844Z,17.27
2022-12-09T11:10:16.823Z,12.05
2022-12-09T11:12:44.917Z,15.40
2022-12-09T11:15:38.907Z,14.82
2022-12-09T11:18:28.458Z,16.52
2022-12-09T11:21:01.959Z,14.27
2022-12-09T11:23:29.877Z,13.77
2022-12-09T11:26:06.060Z,15.32
2022-12-09T11:28:34.437Z,15.32
2022-12-09T11:31:28.320Z,16.88
2022-12-09T11:33:56.962Z,14.00
2022-12-09T11:36:32.632Z,12.95
2022-12-09T11:39:27.949Z,13.90
2022-12-09T11:42:16.940Z,14.23
2022-12-09T11:44:50.533Z,13.23
2022-12-09T11:47:57.364Z,12.18
2022-12-09T11:50:24.971Z,16.52
2022-12-09T11:53:10.561Z,16.08
2022-12-09T11:58:21.142Z,14.48
2022-12-09T12:01:15.729Z,11.38
2022-12-09T12:03:50.032Z,13.02
2022-12-09T12:06:25.085Z,12.85
2022-12-09T12:08:57.944Z,11.80
2022-12-09T12:11:34.411Z,14.57
2022-12-09T12:14:06.342Z,13.80
2022-12-09T12:17:15.233Z,15.70
2022-12-09T12:19:43.555Z,13.23
2022-12-09T12:22:37.451Z,15.70
2022-12-09T12:25:24.341Z,16.02
2022-12-09T12:28:16.091Z,17.95
2022-12-09T12:31:04.992Z,16.30
2022-12-09T12:36:56.647Z,22.70
2022-12-09T12:39:54.536Z,22.95
2022-12-09T12:43:08.061Z,13.73
2022-12-09T12:46:13.212Z,11.52
2022-12-09T12:49:03.145Z,11.57
2022-12-09T12:51:54.420Z,13.07
2022-12-09T12:54:33.344Z,16.02
2022-12-09T12:57:32.320Z,15.52
2022-12-09T13:00:13.206Z,11.93
2022-12-09T13:03:09.003Z,14.65
2022-12-09T13:05:41.345Z,14.05
2022-12-09T13:08:19.069Z,12.02
2022-12-09T13:10:55.647Z,13.25
2022-12-09T13:13:38.395Z,10.98
2022-12-09T13:16:28.650Z,14.48
2022-12-09T13:19:14.211Z,15.32
2022-12-09T13:24:19.560Z,17.05
2022-12-09T13:27:39.579Z,12.38
2022-12-09T13:30:16.813Z,12.90
2022-12-09T13:33:17.398Z,13.38
2022-12-09T13:36:06.053Z,11.40
2022-12-09T13:38:40.651Z,12.98
2022-12-09T13:41:26.077Z,13.27
2022-12-09T13:44:19.284Z,14.63
2022-12-09T13:46:45.931Z,15.40
2022-12-09T13:49:23.818Z,16.58
2022-12-09T13:51:55.108Z,17.85
2022-12-09T13:54:28.014Z,17.73
2022-12-09T13:57:24.018Z,14.95
2022-12-09T13:59:52.041Z,14.18
2022-12-09T14:02:50.237Z,17.33
2022-12-09T14:05:26.118Z,16.65
2022-12-09T14:08:20.892Z,20.90
2022-12-09T14:10:50.279Z,18.92
2022-12-09T14:13:37.041Z,19.75
2022-12-09T14:16:28.622Z,18.40
2022-12-09T14:18:56.786Z,16.10
2022-12-09T14:21:31.108Z,16.63
2022-12-09T14:24:11.209Z,17.10
2022-12-09T14:26:46.735Z,17.60
2022-12-09T14:29:42.417Z,15.50
2022-12-09T14:32:22.630Z,18.90
2022-12-09T14:35:11.660Z,25.00
2022-12-09T14:38:06.265Z,14.43
2022-12-09T14:40:37.218Z,17.90
2022-12-09T14:43:28.496Z,17.52
2022-12-09T14:46:01.874Z,18.35
2022-12-09T14:48:35.636Z,19.15
2022-12-09T14:51:43.994Z,20.48
2022-12-09T14:54:37.589Z,18.83
2022-12-09T14:57:19.634Z,20.63
2022-12-09T14:59:52.185Z,19.42
2022-12-09T15:02:30.672Z,17.23
2022-12-09T15:05:00.171Z,18.38
2022-12-09T15:07:29.303Z,18.42
2022-12-09T15:10:00.342Z,16.13
2022-12-09T15:12:36.087Z,19.85
2022-12-09T15:15:13.350Z,15.57
2022-12-09T15:17:54.072Z,17.55
2022-12-09T15:20:39.249Z,17.13
2022-12-09T15:23:24.766Z,17.00
2022-12-09T15:28:26.388Z,18.88
2022-12-09T15:31:05.866Z,21.65
2022-12-09T15:36:10.986Z,20.35
2022-12-09T15:38:45.538Z,19.00
2022-12-09T15:41:30.588Z,19.58
2022-12-09T15:44:01.295Z,17.83
2022-12-09T15:46:29.170Z,15.85
2022-12-09T15:48:58.266Z,16.90
2022-12-09T15:51:26.722Z,13.15
2022-12-09T15:54:04.730Z,15.52
2022-12-09T15:56:40.840Z,17.77
2022-12-09T15:59:14.706Z,16.27
2022-12-09T16:01:51.444Z,14.95
2022-12-09T16:04:24.482Z,13.60
2022-12-09T16:06:51.409Z,15.18
2022-12-09T16:09:20.127Z,15.98
2022-12-09T16:11:49.991Z,16.95
2022-12-09T16:14:18.938Z,17.58
2022-12-09T16:16:55.704Z,19.13
2022-12-09T16:19:31.145Z,17.02
2022-12-09T16:22:03.828Z,15.13
2022-12-09T16:24:50.703Z,16.48
2022-12-09T16:27:24.800Z,18.33
2022-12-09T16:29:56.811Z,16.60
2022-12-09T16:32:31.428Z,22.75
2022-12-09T16:35:11.205Z,20.77
2022-12-09T16:37:40.998Z,23.05
2022-12-09T16:40:45.830Z,21.17
2022-12-09T16:43:15.555Z,20.05
2022-12-09T16:45:44.500Z,17.10
2022-12-09T16:48:11.706Z,19.77
2022-12-09T16:51:06.181Z,17.65
2022-12-09T16:53:37.534Z,20.77
2022-12-09T16:56:04.454Z,21.48
2022-12-09T16:58:35.153Z,26.95
2022-12-09T17:01:03.945Z,24.85
2022-12-09T17:03:42.817Z,24.15
2022-12-09T17:06:14.291Z,20.15
2022-12-09T17:08:41.252Z,18.58
2022-12-09T17:11:07.837Z,18.50
2022-12-09T17:13:34.929Z,16.98
2022-12-09T17:16:01.744Z,18.98
2022-12-09T17:18:29.203Z,18.33
2022-12-09T17:21:03.959Z,19.63
2022-12-09T17:23:37.733Z,19.23
2022-12-09T17:26:08.740Z,23.02
2022-12-09T17:28:35.761Z,19.95
2022-12-09T17:31:08.121Z,18.23
2022-12-09T17:33:34.871Z,20.38
2022-12-09T17:36:01.470Z,20.00
2022-12-09T17:38:32.094Z,20.50
2022-12-09T17:41:07.755Z,19.38
2022-12-09T17:43:34.981Z,17.35
2022-12-09T17:46:03.332Z,20.27
2022-12-09T17:48:31.231Z,21.60
2022-12-09T17:50:57.866Z,17.00
2022-12-09T17:53:24.839Z,13.35
2022-12-09T17:55:51.485Z,17.40
2022-12-09T17:58:18.090Z,15.43
2022-12-09T18:00:44.831Z,15.77
2022-12-09T18:03:17.845Z,15.27
2022-12-09T18:05:48.962Z,15.07
2022-12-09T18:08:15.643Z,21.17
2022-12-09T18:10:44.077Z,15.18
2022-12-09T18:13:10.636Z,18.02
2022-12-09T18:15:37.459Z,17.58
2022-12-09T18:18:04.255Z,15.35
2022-12-09T18:20:30.875Z,16.67
2022-12-09T18:22:57.655Z,20.25
2022-12-09T18:25:24.381Z,16.83
2022-12-09T18:27:51.055Z,17.25
2022-12-09T18:30:17.820Z,19.75
2022-12-09T18:32:44.421Z,16.35
2022-12-09T18:35:11.123Z,17.02
2022-12-09T18:37:37.778Z,18.23
2022-12-09T18:40:05.461Z,16.85
2022-12-09T18:42:32.375Z,20.65
2022-12-09T18:44:59.035Z,16.88
2022-12-09T18:47:25.678Z,15.40
2022-12-09T18:49:52.461Z,16.77
2022-12-09T18:52:19.139Z,20.65
2022-12-09T18:54:47.611Z,19.02
2022-12-09T18:57:14.426Z,17.52
2022-12-09T18:59:41.119Z,17.13
2022-12-09T19:02:10.498Z,17.17
2022-12-09T19:04:37.524Z,20.48
2022-12-09T19:07:04.207Z,19.52
2022-12-09T19:09:34.645Z,16.13
2022-12-09T19:12:22.891Z,18.70
2022-12-09T19:14:49.807Z,16.00
2022-12-09T19:17:18.634Z,16.58
2022-12-09T19:19:47.128Z,17.45
2022-12-09T19:22:14.432Z,13.82
2022-12-09T19:24:43.305Z,16.60
2022-12-09T19:27:10.335Z,16.00
2022-12-09T19:29:40.220Z,17.65
2022-12-09T19:32:23.585Z,15.18
2022-12-09T19:34:53.565Z,15.68
2022-12-09T19:37:20.207Z,15.52
2022-12-09T19:39:46.914Z,15.10
2022-12-09T19:42:14.019Z,13.18
2022-12-09T19:47:27.354Z,16.60
2022-12-09T19:49:53.996Z,14.95
2022-12-09T19:52:20.605Z,14.77
2022-12-09T19:54:47.256Z,17.58
2022-12-09T19:57:13.905Z,13.88
2022-12-09T19:59:40.491Z,21.70
2022-12-09T20:02:11.790Z,19.35
2022-12-09T20:04:48.643Z,15.82
2022-12-09T20:07:15.691Z,18.38
2022-12-09T20:09:42.318Z,18.05
2022-12-09T20:12:09.030Z,17.70
2022-12-09T20:14:35.778Z,15.85
2022-12-09T20:17:02.357Z,17.85
2022-12-09T20:19:29.021Z,17.17
2022-12-09T20:21:55.657Z,16.45
2022-12-09T20:24:22.380Z,20.75
2022-12-09T20:26:49.074Z,18.67
2022-12-09T20:29:15.682Z,19.90
2022-12-09T20:31:42.843Z,20.00
2022-12-09T20:34:14.479Z,19.48
2022-12-09T20:36:43.055Z,20.85
2022-12-09T20:39:18.621Z,22.27
2022-12-09T20:41:46.218Z,21.58
2022-12-09T20:44:14.180Z,18.15
2022-12-09T20:46:45.074Z,19.45
2022-12-09T20:49:11.821Z,19.70
2022-12-09T20:51:40.433Z,18.75
2022-12-09T20:54:08.230Z,18.95
2022-12-09T20:56:35.555Z,19.23
2022-12-09T20:59:02.632Z,16.42
2022-12-09T21:01:31.627Z,20.15
2022-12-09T21:04:00.116Z,17.77
2022-12-09T21:06:30.126Z,16.15
2022-12-09T21:08:59.559Z,18.10
2022-12-09T21:11:26.737Z,18.55
2022-12-09T21:13:57.724Z,20.70
2022-12-09T21:16:27.948Z,20.48
2022-12-09T21:18:57.008Z,23.27
2022-12-09T21:21:25.811Z,19.00
2022-12-09T21:23:54.445Z,19.13
2022-12-09T21:26:23.436Z,21.15
2022-12-09T21:28:50.961Z,21.13
2022-12-09T21:31:21.574Z,18.67
2022-12-09T21:33:50.266Z,20.17
2022-12-09T21:36:29.802Z,19.65
2022-12-09T21:38:56.560Z,18.27
2022-12-09T21:41:25.613Z,20.60
2022-12-09T21:43:54.838Z,23.88
2022-12-09T21:46:28.115Z,17.90
2022-12-09T21:49:01.730Z,19.73
2022-12-09T21:51:30.840Z,20.92
2022-12-09T21:53:57.500Z,19.75
2022-12-09T21:56:26.503Z,19.05
2022-12-09T21:58:56.074Z,19.90
2022-12-09T22:01:25.929Z,19.67
2022-12-09T22:03:52.982Z,19.35
2022-12-09T22:06:20.006Z,19.17
2022-12-09T22:08:46.681Z,20.70
2022-12-09T22:11:16.417Z,17.65
2022-12-09T22:13:43.810Z,21.15
2022-12-09T22:16:13.138Z,20.58
2022-12-09T22:18:41.507Z,20.17
2022-12-09T22:21:24.765Z,17.90
2022-12-09T22:23:58.004Z,18.48
2022-12-09T22:26:25.261Z,21.17
2022-12-09T22:28:52.449Z,20.23
2022-12-09T22:31:22.315Z,17.20
2022-12-09T22:33:50.464Z,17.48
2022-12-09T22:36:17.276Z,19.35
2022-12-09T22:38:44.337Z,20.13
2022-12-09T22:41:20.407Z,21.88
2022-12-09T22:43:48.818Z,19.13
2022-12-09T22:46:18.361Z,19.35
2022-12-09T22:48:45.105Z,19.55
2022-12-09T22:51:14.644Z,21.40
2022-12-09T22:53:41.604Z,21.45
2022-12-09T22:56:09.798Z,18.90
2022-12-09T22:58:36.569Z,23.83
2022-12-09T23:01:09.874Z,20.20
2022-12-09T23:03:36.661Z,22.17
2022-12-09T23:06:03.382Z,18.80
2022-12-09T23:08:30.289Z,18.33
2022-12-09T23:11:05.369Z,19.65
2022-12-09T23:13:35.010Z,19.13
2022-12-09T23:16:07.314Z,19.27
2022-12-09T23:18:35.016Z,17.15
2022-12-09T23:21:19.554Z,19.30
2022-12-09T23:23:46.282Z,22.38
2022-12-09T23:26:15.584Z,19.63
2022-12-09T23:28:45.198Z,19.63
2022-12-09T23:31:13.978Z,18.73
2022-12-09T23:33:42.984Z,18.10
2022-12-09T23:36:13.891Z,20.40
2022-12-09T23:38:41.424Z,21.50
2022-12-09T23:41:09.521Z,20.05
2022-12-09T23:43:38.068Z,22.98
2022-12-09T23:46:15.273Z,21.60
2022-12-09T23:48:42.678Z,24.60
2022-12-09T23:51:11.405Z,19.67
2022-12-09T23:53:38.852Z,20.73
2022-12-09T23:56:06.505Z,16.98
2022-12-09T23:58:33.719Z,24.05
